Birk — V2BF5 — position and weather

sailwx.info

Track history (hours):
 
Tides and Currents Weather Stations Pressure Air Temp Water Temp Dewpoint Dewpoint Depression Visibility Wind Speed Wind Dir Waves Ship Positions

Birk

Last reported at 2014-Oct-08 23:34 UTC. Time now 2014-Oct-23 05:19 UTC.
Position N 16°23' W 061°57'.
Warning: this ship's position is 14 days out of date.

Length 132 m; draft 7.2 m.

Type: Ship. MMSI: 304535000.

Date/timePositionNaut miles runAvg speedWind from/ knotsBaromVisibWave heightAir tempDewpointWater temp
2014-Oct-08 23:34N 16°23' W 061°57'1616.2
2014-Oct-08 22:34N 16°39' W 061°57'1616.4
2014-Oct-08 21:34N 16°56' W 061°57'90 8.1
2014-Oct-08 10:23N 18°01' W 063°03'0 0.2
2014-Oct-08 09:33N 18°01' W 063°03'0 0.0
2014-Oct-08 08:17N 18°01' W 063°03'0 0.0
2014-Oct-08 07:16N 18°01' W 063°03'0 0.0
2014-Oct-08 06:31N 18°01' W 063°03'0 0.0
2014-Oct-08 05:30N 18°01' W 063°03'0 0.0
2014-Oct-08 04:25N 18°01' W 063°03'11 5.4
2014-Oct-08 02:25N 17°60' W 063°14'1212.8
2014-Oct-08 01:27N 17°59' W 063°27'  
2014-Oct-05 00:04N 25°34' W 079°60'815.2
2014-Oct-04 23:33N 25°42' W 080°02'8 8.0
2014-Oct-04 22:33N 25°46' W 080°10'1 0.0
2014-Oct-04 08:33N 25°46' W 080°09'8 8.5
2014-Oct-04 07:33N 25°40' W 080°02'  
Track history (hours):
 
Tides and Currents Weather Stations Pressure Air Temp Water Temp Dewpoint Dewpoint Depression Visibility Wind Speed Wind Dir Waves Ship Positions

Birk

Last reported at 2014-Oct-08 23:34 UTC. Time now 2014-Oct-23 05:19 UTC.
Position N 16°23' W 061°57'.
Warning: this ship's position is 14 days out of date.

Length 132 m; draft 7.2 m.

Type: Ship. MMSI: 304535000.

Date/timePositionNaut miles runAvg speedWind from/ knotsBaromVisibWave heightAir tempDewpointWater temp
2014-Oct-08 23:34N 16°23' W 061°57'1616.2
2014-Oct-08 22:34N 16°39' W 061°57'1616.4
2014-Oct-08 21:34N 16°56' W 061°57'90 8.1
2014-Oct-08 10:23N 18°01' W 063°03'0 0.2
2014-Oct-08 09:33N 18°01' W 063°03'0 0.0
2014-Oct-08 08:17N 18°01' W 063°03'0 0.0
2014-Oct-08 07:16N 18°01' W 063°03'0 0.0
2014-Oct-08 06:31N 18°01' W 063°03'0 0.0
2014-Oct-08 05:30N 18°01' W 063°03'0 0.0
2014-Oct-08 04:25N 18°01' W 063°03'11 5.4
2014-Oct-08 02:25N 17°60' W 063°14'1212.8
2014-Oct-08 01:27N 17°59' W 063°27'  
2014-Oct-05 00:04N 25°34' W 079°60'815.2
2014-Oct-04 23:33N 25°42' W 080°02'8 8.0
2014-Oct-04 22:33N 25°46' W 080°10'1 0.0
2014-Oct-04 08:33N 25°46' W 080°09'8 8.5
2014-Oct-04 07:33N 25°40' W 080°02'  

Dump ship's entire track history